createdAt,value
2023-05-16T00:00:48.163Z,13.46
2023-05-16T00:03:15.475Z,13.40
2023-05-16T00:05:42.428Z,13.49
2023-05-16T00:08:09.404Z,13.64
2023-05-16T00:10:36.635Z,13.72
2023-05-16T00:13:03.774Z,13.75
2023-05-16T00:15:30.917Z,13.65
2023-05-16T00:18:01.311Z,13.61
2023-05-16T00:20:29.010Z,13.46
2023-05-16T00:22:56.211Z,13.30
2023-05-16T00:25:23.493Z,13.19
2023-05-16T00:27:50.450Z,13.05
2023-05-16T00:30:17.472Z,13.11
2023-05-16T00:32:44.428Z,13.16
2023-05-16T00:35:12.353Z,13.30
2023-05-16T00:37:39.736Z,13.32
2023-05-16T00:40:07.967Z,13.40
2023-05-16T00:42:35.021Z,13.47
2023-05-16T00:45:02.052Z,13.24
2023-05-16T00:47:29.063Z,13.46
2023-05-16T00:49:56.668Z,13.62
2023-05-16T00:52:24.289Z,13.68
2023-05-16T00:54:52.168Z,13.72
2023-05-16T00:57:19.401Z,13.61
2023-05-16T00:59:47.408Z,13.59
2023-05-16T01:02:14.955Z,13.50
2023-05-16T01:04:43.957Z,13.42
2023-05-16T01:07:10.937Z,13.42
2023-05-16T01:09:38.383Z,13.27
2023-05-16T01:12:56.779Z,13.20
2023-05-16T01:15:32.920Z,13.16
2023-05-16T01:18:23.319Z,13.07
2023-05-16T01:21:01.158Z,12.85
2023-05-16T01:23:53.707Z,12.91
2023-05-16T01:26:23.827Z,12.99
2023-05-16T01:28:52.595Z,12.89
2023-05-16T01:31:23.706Z,12.81
2023-05-16T01:33:51.027Z,12.81
2023-05-16T01:36:41.323Z,12.82
2023-05-16T01:39:43.422Z,12.71
2023-05-16T01:42:15.793Z,12.49
2023-05-16T01:45:29.510Z,12.54
2023-05-16T01:48:09.127Z,12.63
2023-05-16T01:50:43.895Z,12.59
2023-05-16T01:53:21.236Z,12.72
2023-05-16T01:55:50.152Z,12.49
2023-05-16T01:58:21.787Z,12.66
2023-05-16T02:00:49.051Z,12.47
2023-05-16T02:03:16.196Z,12.48
2023-05-16T02:05:43.224Z,12.45
2023-05-16T02:08:10.447Z,12.46
2023-05-16T02:10:37.325Z,12.18
2023-05-16T02:13:04.296Z,12.16
2023-05-16T02:15:31.481Z,12.13
2023-05-16T02:17:58.812Z,12.26
2023-05-16T02:20:26.900Z,12.07
2023-05-16T02:22:53.827Z,12.10
2023-05-16T02:25:20.857Z,12.08
2023-05-16T02:27:47.838Z,12.00
2023-05-16T02:30:14.766Z,11.97
2023-05-16T02:32:45.052Z,11.97
2023-05-16T02:35:12.561Z,11.83
2023-05-16T02:37:40.505Z,11.76
2023-05-16T02:40:09.130Z,11.75
2023-05-16T02:42:36.039Z,11.73
2023-05-16T02:45:03.086Z,11.76
2023-05-16T02:47:30.051Z,11.76
2023-05-16T02:49:57.269Z,11.71
2023-05-16T02:52:24.301Z,11.93
2023-05-16T02:55:04.641Z,11.86
2023-05-16T02:57:38.047Z,12.08
2023-05-16T03:00:06.295Z,11.92
2023-05-16T03:02:33.610Z,11.75
2023-05-16T03:05:00.687Z,11.74
2023-05-16T03:07:27.557Z,11.62
2023-05-16T03:09:54.444Z,11.52
2023-05-16T03:12:21.652Z,11.36
2023-05-16T03:14:48.610Z,11.32
2023-05-16T03:17:16.578Z,11.20
2023-05-16T03:19:43.524Z,11.25
2023-05-16T03:22:10.436Z,11.35
2023-05-16T03:24:37.343Z,11.22
2023-05-16T03:27:04.929Z,11.33
2023-05-16T03:29:31.941Z,11.38
2023-05-16T03:31:58.841Z,11.21
2023-05-16T03:34:26.133Z,11.16
2023-05-16T03:36:53.481Z,11.09
2023-05-16T03:39:20.557Z,11.09
2023-05-16T03:41:47.746Z,11.12
2023-05-16T03:44:14.620Z,11.01
2023-05-16T03:46:41.770Z,10.98
2023-05-16T03:49:09.749Z,11.00
2023-05-16T03:51:36.656Z,10.95
2023-05-16T03:54:04.134Z,10.85
2023-05-16T03:56:31.160Z,10.75
2023-05-16T03:58:58.379Z,10.87
2023-05-16T04:01:25.600Z,10.70
2023-05-16T04:03:53.574Z,10.69
2023-05-16T04:06:21.476Z,10.77
2023-05-16T04:08:48.953Z,10.86
2023-05-16T04:11:15.922Z,10.74
2023-05-16T04:13:44.034Z,10.64
2023-05-16T04:16:11.092Z,10.67
2023-05-16T04:18:37.997Z,10.99
2023-05-16T04:21:05.384Z,10.96
2023-05-16T04:23:32.432Z,10.99
2023-05-16T04:25:59.649Z,11.03
2023-05-16T04:28:26.542Z,10.98
2023-05-16T04:30:53.768Z,11.08
2023-05-16T04:33:20.691Z,11.27
2023-05-16T04:35:48.509Z,11.28
2023-05-16T04:38:15.698Z,11.20
2023-05-16T04:40:43.192Z,11.40
2023-05-16T04:43:10.347Z,11.47
2023-05-16T04:45:37.973Z,11.35
2023-05-16T04:48:05.282Z,11.54
2023-05-16T04:50:32.397Z,11.65
2023-05-16T04:52:59.373Z,11.67
2023-05-16T04:55:26.539Z,11.59
2023-05-16T04:57:53.832Z,11.51
2023-05-16T05:00:21.155Z,11.46
2023-05-16T05:02:48.067Z,11.65
2023-05-16T05:05:15.118Z,11.60
2023-05-16T05:07:42.806Z,11.74
2023-05-16T05:10:10.879Z,12.02
2023-05-16T05:12:37.935Z,12.19
2023-05-16T05:15:06.517Z,12.15
2023-05-16T05:17:33.753Z,12.19
2023-05-16T05:20:02.852Z,12.49
2023-05-16T05:22:30.302Z,12.56
2023-05-16T05:24:57.314Z,12.52
2023-05-16T05:27:25.380Z,12.74
2023-05-16T05:29:52.405Z,12.74
2023-05-16T05:32:19.285Z,12.79
2023-05-16T05:34:46.161Z,12.63
2023-05-16T05:37:13.734Z,12.67
2023-05-16T05:39:40.928Z,12.42
2023-05-16T05:42:07.938Z,12.42
2023-05-16T05:44:34.949Z,12.44
2023-05-16T05:47:02.105Z,12.40
2023-05-16T05:49:29.455Z,12.40
2023-05-16T05:51:56.419Z,12.36
2023-05-16T05:54:25.634Z,12.53
2023-05-16T05:56:52.615Z,12.49
2023-05-16T05:59:19.572Z,12.64
2023-05-16T06:01:46.894Z,12.53
2023-05-16T06:04:13.975Z,12.66
2023-05-16T06:06:40.956Z,12.76
2023-05-16T06:09:07.830Z,12.89
2023-05-16T06:11:34.767Z,12.82
2023-05-16T06:14:01.736Z,12.87
2023-05-16T06:16:28.882Z,12.82
2023-05-16T06:18:56.060Z,13.04
2023-05-16T06:21:23.292Z,12.86
2023-05-16T06:23:50.229Z,13.11
2023-05-16T06:26:17.188Z,13.12
2023-05-16T06:28:44.110Z,13.14
2023-05-16T06:31:11.232Z,13.33
2023-05-16T06:33:38.288Z,13.14
2023-05-16T06:36:05.527Z,13.01
2023-05-16T06:38:32.687Z,13.06
2023-05-16T06:40:59.658Z,13.02
2023-05-16T06:43:26.666Z,12.73
2023-05-16T06:45:53.708Z,12.70
2023-05-16T06:48:22.191Z,12.63
2023-05-16T06:50:52.184Z,12.54
2023-05-16T06:53:19.695Z,12.54
2023-05-16T06:55:47.616Z,12.36
2023-05-16T06:58:15.182Z,12.47
2023-05-16T07:00:42.195Z,12.44
2023-05-16T07:03:09.301Z,12.49
2023-05-16T07:05:36.480Z,12.48
2023-05-16T07:08:04.634Z,12.42
2023-05-16T07:10:33.418Z,12.43
2023-05-16T07:13:01.582Z,12.47
2023-05-16T07:15:29.828Z,12.34
2023-05-16T07:17:57.437Z,12.46
2023-05-16T07:20:24.776Z,12.36
2023-05-16T07:22:51.836Z,12.60
2023-05-16T07:25:19.038Z,12.56
2023-05-16T07:27:46.082Z,12.60
2023-05-16T07:30:14.120Z,12.59
2023-05-16T07:32:41.634Z,12.63
2023-05-16T07:35:09.649Z,12.58
2023-05-16T07:37:36.898Z,12.41
2023-05-16T07:40:04.291Z,12.41
2023-05-16T07:42:31.896Z,12.39
2023-05-16T07:44:58.919Z,12.47
2023-05-16T07:47:26.085Z,12.42
2023-05-16T07:49:53.142Z,12.55
2023-05-16T07:52:20.166Z,12.48
2023-05-16T07:54:47.754Z,12.57
2023-05-16T07:57:16.100Z,12.55
2023-05-16T07:59:43.928Z,12.71
2023-05-16T08:02:12.163Z,12.77
2023-05-16T08:04:39.566Z,12.83
2023-05-16T08:07:06.502Z,12.81
2023-05-16T08:09:33.736Z,12.70
2023-05-16T08:12:03.762Z,12.77
2023-05-16T08:14:34.169Z,12.88
2023-05-16T08:17:01.447Z,12.72
2023-05-16T08:19:29.524Z,12.82
2023-05-16T08:21:58.366Z,12.81
2023-05-16T08:24:25.373Z,12.89
2023-05-16T08:26:52.455Z,12.97
2023-05-16T08:29:19.618Z,12.90
2023-05-16T08:31:46.677Z,13.07
2023-05-16T08:34:13.678Z,13.13
2023-05-16T08:36:40.795Z,13.12
2023-05-16T08:39:07.752Z,13.01
2023-05-16T08:41:34.808Z,13.00
2023-05-16T08:44:02.056Z,13.05
2023-05-16T08:46:29.929Z,12.81
2023-05-16T08:49:00.955Z,12.85
2023-05-16T08:51:35.444Z,12.70
2023-05-16T08:54:11.855Z,12.54
2023-05-16T08:56:39.354Z,12.35
2023-05-16T08:59:06.761Z,12.36
2023-05-16T09:01:34.677Z,12.35
2023-05-16T09:04:03.975Z,12.39
2023-05-16T09:06:31.416Z,12.53
2023-05-16T09:08:59.453Z,12.51
2023-05-16T09:11:26.441Z,12.47
2023-05-16T09:13:53.457Z,12.19
2023-05-16T09:16:21.372Z,12.24
2023-05-16T09:19:00.366Z,12.29
2023-05-16T09:21:35.063Z,12.17
2023-05-16T09:24:06.595Z,12.13
2023-05-16T09:26:36.083Z,12.21
2023-05-16T09:29:11.108Z,12.11
2023-05-16T09:31:38.646Z,12.08
2023-05-16T09:34:12.017Z,12.14
2023-05-16T09:36:39.704Z,12.00
2023-05-16T09:39:08.261Z,11.94
2023-05-16T09:41:36.459Z,12.08
2023-05-16T09:44:07.154Z,12.17
2023-05-16T09:46:38.757Z,12.25
2023-05-16T09:49:06.322Z,12.49
2023-05-16T09:51:34.509Z,12.59
2023-05-16T09:54:01.643Z,12.94
2023-05-16T09:56:30.092Z,13.12
2023-05-16T09:58:57.142Z,12.75
2023-05-16T10:01:25.664Z,12.63
2023-05-16T10:03:52.863Z,12.67
2023-05-16T10:06:20.624Z,12.50
2023-05-16T10:08:48.692Z,12.56
2023-05-16T10:11:17.399Z,12.51
2023-05-16T10:13:50.371Z,12.68
2023-05-16T10:16:18.982Z,12.45
2023-05-16T10:18:46.104Z,12.18
2023-05-16T10:21:18.153Z,12.29
2023-05-16T10:23:49.791Z,12.35
2023-05-16T10:26:18.365Z,12.41
2023-05-16T10:28:45.910Z,12.31
2023-05-16T10:31:14.620Z,12.24
2023-05-16T10:33:42.242Z,12.34
2023-05-16T10:36:11.943Z,12.29
2023-05-16T10:38:40.382Z,12.09
2023-05-16T10:41:08.744Z,12.17
2023-05-16T10:43:36.689Z,12.12
2023-05-16T10:46:08.060Z,11.89
2023-05-16T10:48:41.192Z,11.87
2023-05-16T10:51:23.437Z,11.84
2023-05-16T10:54:12.828Z,12.06
2023-05-16T10:56:39.889Z,12.02
2023-05-16T10:59:24.915Z,12.16
2023-05-16T11:01:56.715Z,12.37
2023-05-16T11:04:23.998Z,12.17
2023-05-16T11:06:53.326Z,12.06
2023-05-16T11:09:24.363Z,12.02
2023-05-16T11:12:04.086Z,11.91
2023-05-16T11:14:47.578Z,12.03
2023-05-16T11:17:25.185Z,12.08
2023-05-16T11:19:59.790Z,12.13
2023-05-16T11:22:29.752Z,12.23
2023-05-16T11:25:08.003Z,12.35
2023-05-16T11:27:46.571Z,12.41
2023-05-16T11:30:19.334Z,12.54
2023-05-16T11:32:48.358Z,12.74
2023-05-16T11:35:17.358Z,12.59
2023-05-16T11:37:45.674Z,12.55
2023-05-16T11:40:14.666Z,12.53
2023-05-16T11:42:50.438Z,12.32
2023-05-16T11:45:20.194Z,12.22
2023-05-16T11:47:49.094Z,12.07
2023-05-16T11:50:19.695Z,12.00
2023-05-16T11:52:57.508Z,11.87
2023-05-16T11:55:41.300Z,12.02
2023-05-16T11:58:10.288Z,12.31
2023-05-16T12:00:37.382Z,12.31
2023-05-16T12:03:06.483Z,12.28
2023-05-16T12:05:35.277Z,12.15
2023-05-16T12:08:05.610Z,12.09
2023-05-16T12:10:36.135Z,11.95
2023-05-16T12:13:03.919Z,11.94
2023-05-16T12:15:31.517Z,11.88
2023-05-16T12:17:59.204Z,11.77
2023-05-16T12:20:26.853Z,11.64
2023-05-16T12:22:58.507Z,11.53
2023-05-16T12:25:29.899Z,11.49
2023-05-16T12:28:03.063Z,11.50
2023-05-16T12:30:32.448Z,11.67
2023-05-16T12:33:02.304Z,11.66
2023-05-16T12:35:33.374Z,11.63
2023-05-16T12:38:04.301Z,11.56
2023-05-16T12:40:31.682Z,11.58
2023-05-16T12:42:59.860Z,11.63
2023-05-16T12:45:30.008Z,11.66
2023-05-16T12:47:57.111Z,11.72
2023-05-16T12:50:27.225Z,11.64
2023-05-16T12:52:59.336Z,11.56
2023-05-16T12:55:26.985Z,11.55
2023-05-16T12:57:57.777Z,11.42
2023-05-16T13:00:25.297Z,11.46
2023-05-16T13:02:54.636Z,11.45
2023-05-16T13:05:23.406Z,11.44
2023-05-16T13:07:54.486Z,11.51
2023-05-16T13:10:21.522Z,11.59
2023-05-16T13:12:49.503Z,11.58
2023-05-16T13:15:16.564Z,11.60
2023-05-16T13:17:48.491Z,11.64
2023-05-16T13:20:15.835Z,11.62
2023-05-16T13:22:45.452Z,11.65
2023-05-16T13:25:14.568Z,11.74
2023-05-16T13:27:41.795Z,11.87
2023-05-16T13:30:09.441Z,11.89
2023-05-16T13:32:36.590Z,11.95
2023-05-16T13:35:04.160Z,12.08
2023-05-16T13:37:31.914Z,12.12
2023-05-16T13:39:59.016Z,12.34
2023-05-16T13:42:26.113Z,12.47
2023-05-16T13:44:53.158Z,12.56
2023-05-16T13:47:20.133Z,12.80
2023-05-16T13:49:47.715Z,12.87
2023-05-16T13:52:14.992Z,12.88
2023-05-16T13:54:42.046Z,13.03
2023-05-16T13:57:09.107Z,13.05
2023-05-16T14:02:06.145Z,13.15
2023-05-16T14:04:33.141Z,13.04
2023-05-16T14:07:00.050Z,13.11
2023-05-16T14:09:27.249Z,13.29
2023-05-16T14:11:54.278Z,13.32
2023-05-16T14:14:21.414Z,13.29
2023-05-16T14:16:49.611Z,13.29
2023-05-16T14:19:19.432Z,13.38
2023-05-16T14:21:47.793Z,13.75
2023-05-16T14:24:14.805Z,13.80
2023-05-16T14:26:41.811Z,13.94
2023-05-16T14:29:09.000Z,13.85
2023-05-16T14:31:38.684Z,14.04
2023-05-16T14:34:05.917Z,14.10
2023-05-16T14:36:33.891Z,14.32
2023-05-16T14:39:00.897Z,14.61
2023-05-16T14:41:27.893Z,14.66
2023-05-16T14:43:56.179Z,14.62
2023-05-16T14:46:23.351Z,14.75
2023-05-16T14:48:51.091Z,14.98
2023-05-16T14:51:18.197Z,14.68
2023-05-16T14:53:46.988Z,15.18
2023-05-16T14:56:14.538Z,15.02
2023-05-16T14:58:42.541Z,15.11
2023-05-16T15:01:09.741Z,15.36
2023-05-16T15:03:53.756Z,15.33
2023-05-16T15:06:22.493Z,15.72
2023-05-16T15:08:49.515Z,15.98
2023-05-16T15:11:16.542Z,16.09
2023-05-16T15:13:43.609Z,16.17
2023-05-16T15:16:10.807Z,15.56
2023-05-16T15:18:37.977Z,15.73
2023-05-16T15:21:05.080Z,15.91
2023-05-16T15:23:32.111Z,15.98
2023-05-16T15:25:59.213Z,16.01
2023-05-16T15:28:26.263Z,16.14
2023-05-16T15:30:53.315Z,15.98
2023-05-16T15:33:20.508Z,15.98
2023-05-16T15:35:48.436Z,15.96
2023-05-16T15:38:15.534Z,16.07
2023-05-16T15:40:42.663Z,15.65
2023-05-16T15:43:09.683Z,15.73
2023-05-16T15:45:39.897Z,15.72
2023-05-16T15:48:07.780Z,15.61
2023-05-16T15:50:35.088Z,15.89
2023-05-16T15:53:02.262Z,15.89
2023-05-16T15:55:29.380Z,15.89
2023-05-16T15:57:58.509Z,15.73
2023-05-16T16:00:26.359Z,15.67
2023-05-16T16:02:53.676Z,15.50
2023-05-16T16:05:20.807Z,15.01
2023-05-16T16:07:47.777Z,15.39
2023-05-16T16:10:14.785Z,15.52
2023-05-16T16:12:41.805Z,15.76
2023-05-16T16:15:10.985Z,15.40
2023-05-16T16:17:38.109Z,15.56
2023-05-16T16:20:05.880Z,15.74
2023-05-16T16:22:32.957Z,15.67
2023-05-16T16:25:02.604Z,15.09
2023-05-16T16:27:29.646Z,14.96
2023-05-16T16:29:56.597Z,15.14
2023-05-16T16:32:23.681Z,15.27
2023-05-16T16:34:50.710Z,15.07
2023-05-16T16:37:17.803Z,15.37
2023-05-16T16:39:44.809Z,15.53
2023-05-16T16:42:11.960Z,15.56
2023-05-16T16:44:38.991Z,15.23
2023-05-16T16:47:06.236Z,15.07
2023-05-16T16:49:33.181Z,14.85
2023-05-16T16:52:00.299Z,14.67
2023-05-16T16:54:28.131Z,14.87
2023-05-16T16:56:56.422Z,15.33
2023-05-16T16:59:23.638Z,15.40
2023-05-16T17:01:50.818Z,15.36
2023-05-16T17:04:17.832Z,14.98
2023-05-16T17:06:46.453Z,15.03
2023-05-16T17:09:17.982Z,15.25
2023-05-16T17:11:47.142Z,15.28
2023-05-16T17:14:15.871Z,15.16
2023-05-16T17:16:43.005Z,15.31
2023-05-16T17:19:11.242Z,15.37
2023-05-16T17:21:40.596Z,15.51
2023-05-16T17:24:08.117Z,15.43
2023-05-16T17:26:35.805Z,15.47
2023-05-16T17:29:04.897Z,15.46
2023-05-16T17:31:31.983Z,15.73
2023-05-16T17:33:58.898Z,15.90
2023-05-16T17:36:25.940Z,16.01
2023-05-16T17:38:52.922Z,15.93
2023-05-16T17:41:22.096Z,15.90
2023-05-16T17:43:49.079Z,15.86
2023-05-16T17:46:16.024Z,15.62
2023-05-16T17:48:43.991Z,15.58
2023-05-16T17:51:10.996Z,15.51
2023-05-16T17:53:38.475Z,15.76
2023-05-16T17:56:05.629Z,15.64
2023-05-16T17:58:32.617Z,15.58
2023-05-16T18:00:59.718Z,15.51
2023-05-16T18:03:28.075Z,15.37
2023-05-16T18:05:55.874Z,14.73
2023-05-16T18:08:23.190Z,14.55
2023-05-16T18:10:51.959Z,14.35
2023-05-16T18:13:21.934Z,14.26
2023-05-16T18:15:49.014Z,14.11
2023-05-16T18:18:17.552Z,14.01
2023-05-16T18:20:45.959Z,13.92
2023-05-16T18:23:13.085Z,13.79
2023-05-16T18:25:40.035Z,13.58
2023-05-16T18:28:07.739Z,13.54
2023-05-16T18:30:37.685Z,13.51
2023-05-16T18:33:06.597Z,13.52
2023-05-16T18:35:33.653Z,13.41
2023-05-16T18:38:01.328Z,13.14
2023-05-16T18:40:28.468Z,13.10
2023-05-16T18:42:56.718Z,12.83
2023-05-16T18:45:26.332Z,12.83
2023-05-16T18:47:53.691Z,12.72
2023-05-16T18:50:21.230Z,12.75
2023-05-16T18:52:48.435Z,12.68
2023-05-16T18:55:15.886Z,12.62
2023-05-16T18:57:44.067Z,12.55
2023-05-16T19:00:12.080Z,12.61
2023-05-16T19:02:42.556Z,12.41
2023-05-16T19:05:10.783Z,12.14
2023-05-16T19:07:38.086Z,12.20
2023-05-16T19:10:05.963Z,12.17
2023-05-16T19:12:32.944Z,12.06
2023-05-16T19:14:59.975Z,11.87
2023-05-16T19:17:26.963Z,11.80
2023-05-16T19:19:55.203Z,11.76
2023-05-16T19:22:22.168Z,11.71
2023-05-16T19:24:49.124Z,11.89
2023-05-16T19:27:16.958Z,11.80
2023-05-16T19:29:44.105Z,11.85
2023-05-16T19:32:11.584Z,11.87
2023-05-16T19:34:38.530Z,11.75
2023-05-16T19:37:06.684Z,11.78
2023-05-16T19:39:33.722Z,11.58
2023-05-16T19:42:07.089Z,11.47
2023-05-16T19:44:35.273Z,11.36
2023-05-16T19:47:02.763Z,11.37
2023-05-16T19:49:32.077Z,11.07
2023-05-16T19:52:02.974Z,10.88
2023-05-16T19:54:30.356Z,10.96
2023-05-16T19:56:57.286Z,10.82
2023-05-16T19:59:24.389Z,11.09
2023-05-16T20:01:51.362Z,11.09
2023-05-16T20:04:19.471Z,11.21
2023-05-16T20:06:46.955Z,11.43
2023-05-16T20:09:14.624Z,11.54
2023-05-16T20:11:41.763Z,11.53
2023-05-16T20:14:08.816Z,11.70
2023-05-16T20:16:35.801Z,11.66
2023-05-16T20:19:05.804Z,11.68
2023-05-16T20:21:32.906Z,11.83
2023-05-16T20:24:00.376Z,11.69
2023-05-16T20:26:27.795Z,11.68
2023-05-16T20:28:54.998Z,11.55
2023-05-16T20:31:22.284Z,11.65
2023-05-16T20:33:50.228Z,11.76
2023-05-16T20:36:17.385Z,11.73
2023-05-16T20:38:44.299Z,11.83
2023-05-16T20:41:11.445Z,11.77
2023-05-16T20:43:38.410Z,11.81
2023-05-16T20:46:05.657Z,11.74
2023-05-16T20:48:32.645Z,11.75
2023-05-16T20:51:01.261Z,11.75
2023-05-16T20:53:28.245Z,11.69
2023-05-16T20:55:55.223Z,11.57
2023-05-16T20:58:22.212Z,11.45
2023-05-16T21:00:49.210Z,11.19
2023-05-16T21:03:16.266Z,11.11
2023-05-16T21:05:43.228Z,11.02
2023-05-16T21:08:10.486Z,10.91
2023-05-16T21:10:37.540Z,10.64
2023-05-16T21:13:04.512Z,10.64
2023-05-16T21:15:31.488Z,10.53
2023-05-16T21:17:58.493Z,10.60
2023-05-16T21:20:25.579Z,10.44
2023-05-16T21:22:52.477Z,10.48
2023-05-16T21:25:19.472Z,10.29
2023-05-16T21:27:46.401Z,10.18
2023-05-16T21:30:14.019Z,10.11
2023-05-16T21:32:40.987Z,9.90
2023-05-16T21:35:08.945Z,9.90
2023-05-16T21:37:35.947Z,9.75
2023-05-16T21:40:02.975Z,9.61
2023-05-16T21:42:29.912Z,9.52
2023-05-16T21:44:56.921Z,9.63
2023-05-16T21:47:23.884Z,9.63
2023-05-16T21:49:51.830Z,9.50
2023-05-16T21:52:19.036Z,9.52
2023-05-16T21:54:51.412Z,9.42
2023-05-16T21:57:19.550Z,9.61
2023-05-16T21:59:50.535Z,9.65
2023-05-16T22:02:22.632Z,9.28
2023-05-16T22:04:53.489Z,9.19
2023-05-16T22:07:20.714Z,9.23
2023-05-16T22:09:50.926Z,9.30
2023-05-16T22:12:17.898Z,9.25
2023-05-16T22:14:45.028Z,9.16
2023-05-16T22:17:11.959Z,9.18
2023-05-16T22:19:39.641Z,9.28
2023-05-16T22:22:06.826Z,9.40
2023-05-16T22:24:34.876Z,9.48
2023-05-16T22:27:01.833Z,9.35
2023-05-16T22:29:29.704Z,9.42
2023-05-16T22:31:56.761Z,9.44
2023-05-16T22:34:23.842Z,9.39
2023-05-16T22:36:50.733Z,9.32
2023-05-16T22:39:17.655Z,9.49
2023-05-16T22:41:44.660Z,9.39
2023-05-16T22:44:11.649Z,9.33
2023-05-16T22:46:38.588Z,9.22
2023-05-16T22:49:05.630Z,9.21
2023-05-16T22:51:32.587Z,9.02
2023-05-16T22:53:59.653Z,9.13
2023-05-16T22:56:26.552Z,8.83
2023-05-16T22:58:53.561Z,8.67
2023-05-16T23:01:20.572Z,8.67
2023-05-16T23:03:47.573Z,8.82
2023-05-16T23:06:14.562Z,8.75
2023-05-16T23:08:42.712Z,8.66
2023-05-16T23:11:12.050Z,8.68
2023-05-16T23:13:39.157Z,8.74
2023-05-16T23:16:06.799Z,8.73
2023-05-16T23:18:33.841Z,8.68
2023-05-16T23:21:00.855Z,8.63
2023-05-16T23:23:27.825Z,8.73
2023-05-16T23:25:54.876Z,8.82
2023-05-16T23:28:21.925Z,8.72
2023-05-16T23:30:48.982Z,8.63
2023-05-16T23:33:16.011Z,8.73
2023-05-16T23:35:43.601Z,8.66
2023-05-16T23:38:10.596Z,8.66
2023-05-16T23:40:37.749Z,8.73
2023-05-16T23:43:04.705Z,8.69
2023-05-16T23:45:31.766Z,8.56
2023-05-16T23:47:59.208Z,8.62
2023-05-16T23:50:26.336Z,8.57
2023-05-16T23:52:53.274Z,8.56
2023-05-16T23:55:20.414Z,8.60
2023-05-16T23:57:47.384Z,8.46
